sensor_id;sensor_type;location;lat;lon;timestamp;pressure;altitude;pressure_sealevel;temperature;humidity
29461;BME280;16428;47.836;35.106;2024-02-21T00:01:40;102414.88;;;-0.02;86.80
29461;BME280;16428;47.836;35.106;2024-02-21T00:04:07;102410.19;;;0.24;84.57
29461;BME280;16428;47.836;35.106;2024-02-21T00:06:34;102404.13;;;0.02;86.66
29461;BME280;16428;47.836;35.106;2024-02-21T00:09:01;102405.91;;;0.01;86.13
29461;BME280;16428;47.836;35.106;2024-02-21T00:11:29;102408.59;;;0.20;85.08
29461;BME280;16428;47.836;35.106;2024-02-21T00:13:56;102408.16;;;0.10;84.52
29461;BME280;16428;47.836;35.106;2024-02-21T00:16:23;102402.84;;;-0.09;84.13
29461;BME280;16428;47.836;35.106;2024-02-21T00:18:50;102402.38;;;0.21;82.46
29461;BME280;16428;47.836;35.106;2024-02-21T00:21:16;102396.03;;;0.25;83.16
29461;BME280;16428;47.836;35.106;2024-02-21T00:23:45;102396.59;;;0.31;82.43
29461;BME280;16428;47.836;35.106;2024-02-21T00:26:13;102394.19;;;0.27;83.07
29461;BME280;16428;47.836;35.106;2024-02-21T00:28:43;102392.25;;;0.12;82.27
29461;BME280;16428;47.836;35.106;2024-02-21T00:31:10;102387.41;;;0.40;81.60
29461;BME280;16428;47.836;35.106;2024-02-21T00:33:37;102388.16;;;0.05;84.77
29461;BME280;16428;47.836;35.106;2024-02-21T00:36:04;102381.94;;;0.06;84.00
29461;BME280;16428;47.836;35.106;2024-02-21T00:38:31;102376.75;;;0.23;82.13
29461;BME280;16428;47.836;35.106;2024-02-21T00:40:58;102375.31;;;0.16;82.72
29461;BME280;16428;47.836;35.106;2024-02-21T00:43:25;102374.88;;;0.06;84.21
29461;BME280;16428;47.836;35.106;2024-02-21T00:45:52;102371.91;;;0.14;83.57
29461;BME280;16428;47.836;35.106;2024-02-21T00:48:19;102370.13;;;0.14;84.19
29461;BME280;16428;47.836;35.106;2024-02-21T00:50:46;102370.81;;;0.18;83.24
29461;BME280;16428;47.836;35.106;2024-02-21T00:53:13;102364.13;;;0.29;83.00
29461;BME280;16428;47.836;35.106;2024-02-21T00:55:40;102370.44;;;0.07;84.79
29461;BME280;16428;47.836;35.106;2024-02-21T00:58:07;102369.63;;;0.25;84.92
29461;BME280;16428;47.836;35.106;2024-02-21T01:00:34;102364.16;;;0.09;84.52
29461;BME280;16428;47.836;35.106;2024-02-21T01:03:02;102361.72;;;0.05;85.52
29461;BME280;16428;47.836;35.106;2024-02-21T01:05:29;102366.19;;;0.23;85.18
29461;BME280;16428;47.836;35.106;2024-02-21T01:07:56;102365.47;;;0.19;82.52
29461;BME280;16428;47.836;35.106;2024-02-21T01:10:23;102360.41;;;0.15;83.90
29461;BME280;16428;47.836;35.106;2024-02-21T01:12:50;102364.31;;;0.06;83.22
29461;BME280;16428;47.836;35.106;2024-02-21T01:15:17;102355.44;;;0.07;83.99
29461;BME280;16428;47.836;35.106;2024-02-21T01:17:44;102360.75;;;0.26;81.58
29461;BME280;16428;47.836;35.106;2024-02-21T01:20:11;102358.06;;;0.27;81.04
29461;BME280;16428;47.836;35.106;2024-02-21T01:22:38;102356.31;;;0.08;83.78
29461;BME280;16428;47.836;35.106;2024-02-21T01:25:06;102368.97;;;0.20;83.04
29461;BME280;16428;47.836;35.106;2024-02-21T01:27:33;102359.75;;;0.47;80.31
29461;BME280;16428;47.836;35.106;2024-02-21T01:30:00;102360.06;;;0.60;79.41
29461;BME280;16428;47.836;35.106;2024-02-21T01:32:27;102363.69;;;0.57;79.63
29461;BME280;16428;47.836;35.106;2024-02-21T01:34:54;102369.38;;;0.67;78.76
29461;BME280;16428;47.836;35.106;2024-02-21T01:37:21;102355.31;;;0.66;79.20
29461;BME280;16428;47.836;35.106;2024-02-21T01:39:48;102362.19;;;0.33;80.38
29461;BME280;16428;47.836;35.106;2024-02-21T01:42:16;102358.75;;;0.50;81.06
29461;BME280;16428;47.836;35.106;2024-02-21T01:44:43;102357.16;;;0.64;80.08
29461;BME280;16428;47.836;35.106;2024-02-21T01:47:10;102351.81;;;0.47;80.04
29461;BME280;16428;47.836;35.106;2024-02-21T01:49:37;102354.19;;;0.53;80.05
29461;BME280;16428;47.836;35.106;2024-02-21T01:52:05;102364.47;;;0.59;80.59
29461;BME280;16428;47.836;35.106;2024-02-21T01:54:32;102351.59;;;0.52;80.92
29461;BME280;16428;47.836;35.106;2024-02-21T01:56:59;102354.91;;;0.57;80.46
29461;BME280;16428;47.836;35.106;2024-02-21T01:59:26;102348.91;;;0.53;79.89
29461;BME280;16428;47.836;35.106;2024-02-21T02:01:55;102350.59;;;0.54;79.08
29461;BME280;16428;47.836;35.106;2024-02-21T02:04:24;102354.81;;;0.21;81.93
29461;BME280;16428;47.836;35.106;2024-02-21T02:06:54;102348.56;;;0.42;82.17
29461;BME280;16428;47.836;35.106;2024-02-21T02:09:21;102352.59;;;0.49;80.67
29461;BME280;16428;47.836;35.106;2024-02-21T02:11:48;102340.16;;;0.51;80.81
29461;BME280;16428;47.836;35.106;2024-02-21T02:14:15;102343.47;;;0.19;83.47
29461;BME280;16428;47.836;35.106;2024-02-21T02:16:46;102339.69;;;0.24;83.19
29461;BME280;16428;47.836;35.106;2024-02-21T02:19:14;102353.63;;;0.28;80.86
29461;BME280;16428;47.836;35.106;2024-02-21T02:21:46;102344.84;;;0.27;80.10
29461;BME280;16428;47.836;35.106;2024-02-21T02:24:20;102348.03;;;0.34;78.26
29461;BME280;16428;47.836;35.106;2024-02-21T02:26:48;102344.78;;;0.29;77.91
29461;BME280;16428;47.836;35.106;2024-02-21T02:29:14;102352.41;;;0.35;77.10
29461;BME280;16428;47.836;35.106;2024-02-21T02:31:41;102343.31;;;0.22;77.75
29461;BME280;16428;47.836;35.106;2024-02-21T02:34:09;102342.31;;;0.06;78.96
29461;BME280;16428;47.836;35.106;2024-02-21T02:36:36;102347.63;;;0.24;77.77
29461;BME280;16428;47.836;35.106;2024-02-21T02:39:03;102348.03;;;0.34;76.66
29461;BME280;16428;47.836;35.106;2024-02-21T02:41:30;102347.53;;;0.26;77.75
29461;BME280;16428;47.836;35.106;2024-02-21T02:43:57;102350.31;;;0.23;76.74
29461;BME280;16428;47.836;35.106;2024-02-21T02:46:24;102348.16;;;0.31;77.54
29461;BME280;16428;47.836;35.106;2024-02-21T02:48:51;102351.94;;;0.07;79.35
29461;BME280;16428;47.836;35.106;2024-02-21T02:51:18;102354.75;;;0.22;79.17
29461;BME280;16428;47.836;35.106;2024-02-21T02:53:45;102351.78;;;0.30;78.48
29461;BME280;16428;47.836;35.106;2024-02-21T02:56:15;102352.97;;;0.42;78.46
29461;BME280;16428;47.836;35.106;2024-02-21T02:58:43;102358.59;;;0.34;79.50
29461;BME280;16428;47.836;35.106;2024-02-21T03:01:10;102361.63;;;0.45;80.31
29461;BME280;16428;47.836;35.106;2024-02-21T03:03:37;102357.88;;;0.49;80.34
29461;BME280;16428;47.836;35.106;2024-02-21T03:06:04;102357.66;;;0.16;82.30
29461;BME280;16428;47.836;35.106;2024-02-21T03:08:32;102365.63;;;0.35;81.04
29461;BME280;16428;47.836;35.106;2024-02-21T03:10:59;102363.56;;;0.42;81.63
29461;BME280;16428;47.836;35.106;2024-02-21T03:13:27;102367.19;;;0.39;81.73
29461;BME280;16428;47.836;35.106;2024-02-21T03:15:54;102363.03;;;0.52;81.06
29461;BME280;16428;47.836;35.106;2024-02-21T03:18:21;102365.03;;;0.47;81.11
29461;BME280;16428;47.836;35.106;2024-02-21T03:20:48;102362.56;;;0.44;79.65
29461;BME280;16428;47.836;35.106;2024-02-21T03:23:15;102359.03;;;0.25;81.11
29461;BME280;16428;47.836;35.106;2024-02-21T03:25:42;102363.53;;;0.23;81.98
29461;BME280;16428;47.836;35.106;2024-02-21T03:28:09;102362.47;;;0.27;82.08
29461;BME280;16428;47.836;35.106;2024-02-21T03:30:36;102360.13;;;0.00;82.75
29461;BME280;16428;47.836;35.106;2024-02-21T03:33:03;102357.81;;;0.32;81.66
29461;BME280;16428;47.836;35.106;2024-02-21T03:35:30;102368.59;;;0.09;82.73
29461;BME280;16428;47.836;35.106;2024-02-21T03:37:58;102365.34;;;0.41;81.09
29461;BME280;16428;47.836;35.106;2024-02-21T03:40:25;102371.34;;;0.26;82.19
29461;BME280;16428;47.836;35.106;2024-02-21T03:42:51;102361.97;;;0.19;82.55
29461;BME280;16428;47.836;35.106;2024-02-21T03:45:18;102370.03;;;0.16;81.96
29461;BME280;16428;47.836;35.106;2024-02-21T03:47:46;102364.16;;;0.09;83.47
29461;BME280;16428;47.836;35.106;2024-02-21T03:50:13;102363.81;;;0.17;82.45
29461;BME280;16428;47.836;35.106;2024-02-21T03:52:40;102369.91;;;0.38;80.37
29461;BME280;16428;47.836;35.106;2024-02-21T03:55:08;102359.31;;;0.19;81.10
29461;BME280;16428;47.836;35.106;2024-02-21T03:57:35;102364.47;;;0.22;81.83
29461;BME280;16428;47.836;35.106;2024-02-21T04:00:02;102366.75;;;0.11;82.24
29461;BME280;16428;47.836;35.106;2024-02-21T04:02:30;102361.88;;;0.20;82.18
29461;BME280;16428;47.836;35.106;2024-02-21T04:04:57;102369.47;;;0.28;80.89
29461;BME280;16428;47.836;35.106;2024-02-21T04:07:24;102362.75;;;0.21;81.15
29461;BME280;16428;47.836;35.106;2024-02-21T04:09:51;102360.25;;;0.18;81.97
29461;BME280;16428;47.836;35.106;2024-02-21T04:12:18;102366.84;;;0.28;81.99
29461;BME280;16428;47.836;35.106;2024-02-21T04:14:45;102360.88;;;0.04;84.06
29461;BME280;16428;47.836;35.106;2024-02-21T04:17:13;102352.31;;;-0.01;83.26
29461;BME280;16428;47.836;35.106;2024-02-21T04:19:40;102358.91;;;0.28;83.24
29461;BME280;16428;47.836;35.106;2024-02-21T04:22:07;102351.72;;;-0.08;85.40
29461;BME280;16428;47.836;35.106;2024-02-21T04:24:34;102355.03;;;-0.03;86.53
29461;BME280;16428;47.836;35.106;2024-02-21T04:27:01;102358.59;;;-0.04;86.28
29461;BME280;16428;47.836;35.106;2024-02-21T04:29:28;102360.31;;;-0.03;86.60
29461;BME280;16428;47.836;35.106;2024-02-21T04:31:55;102356.88;;;-0.05;86.98
29461;BME280;16428;47.836;35.106;2024-02-21T04:34:22;102357.75;;;0.15;86.91
29461;BME280;16428;47.836;35.106;2024-02-21T04:36:49;102359.78;;;0.28;85.18
29461;BME280;16428;47.836;35.106;2024-02-21T04:39:16;102361.16;;;0.17;85.81
29461;BME280;16428;47.836;35.106;2024-02-21T04:41:44;102365.69;;;0.15;87.21
29461;BME280;16428;47.836;35.106;2024-02-21T04:44:11;102365.75;;;0.32;85.59
29461;BME280;16428;47.836;35.106;2024-02-21T04:46:42;102367.81;;;0.07;87.50
29461;BME280;16428;47.836;35.106;2024-02-21T04:49:09;102366.03;;;0.26;87.28
29461;BME280;16428;47.836;35.106;2024-02-21T04:51:36;102364.97;;;0.11;88.64
29461;BME280;16428;47.836;35.106;2024-02-21T04:54:04;102360.59;;;0.10;88.90
29461;BME280;16428;47.836;35.106;2024-02-21T04:56:31;102368.16;;;0.18;89.17
29461;BME280;16428;47.836;35.106;2024-02-21T04:58:58;102362.66;;;0.04;90.79
29461;BME280;16428;47.836;35.106;2024-02-21T05:01:25;102366.03;;;0.26;90.36
29461;BME280;16428;47.836;35.106;2024-02-21T05:03:52;102366.34;;;0.39;88.74
29461;BME280;16428;47.836;35.106;2024-02-21T05:06:19;102365.44;;;0.00;91.01
29461;BME280;16428;47.836;35.106;2024-02-21T05:08:46;102371.09;;;0.12;91.46
29461;BME280;16428;47.836;35.106;2024-02-21T05:11:14;102372.03;;;0.11;92.50
29461;BME280;16428;47.836;35.106;2024-02-21T05:13:41;102376.69;;;0.24;92.77
29461;BME280;16428;47.836;35.106;2024-02-21T05:16:08;102382.03;;;0.23;92.34
29461;BME280;16428;47.836;35.106;2024-02-21T05:18:35;102376.03;;;0.19;93.43
29461;BME280;16428;47.836;35.106;2024-02-21T05:21:03;102388.31;;;0.20;94.24
29461;BME280;16428;47.836;35.106;2024-02-21T05:23:30;102373.88;;;0.46;93.84
29461;BME280;16428;47.836;35.106;2024-02-21T05:25:57;102386.81;;;0.33;94.23
29461;BME280;16428;47.836;35.106;2024-02-21T05:28:24;102391.47;;;0.47;93.56
29461;BME280;16428;47.836;35.106;2024-02-21T05:30:52;102391.28;;;0.70;92.46
29461;BME280;16428;47.836;35.106;2024-02-21T05:33:19;102393.91;;;0.70;93.17
29461;BME280;16428;47.836;35.106;2024-02-21T05:35:49;102390.47;;;0.68;93.64
29461;BME280;16428;47.836;35.106;2024-02-21T05:38:16;102400.34;;;0.84;92.72
29461;BME280;16428;47.836;35.106;2024-02-21T05:40:47;102400.19;;;0.87;92.63
29461;BME280;16428;47.836;35.106;2024-02-21T05:43:14;102400.06;;;0.90;93.30
29461;BME280;16428;47.836;35.106;2024-02-21T05:45:41;102398.72;;;0.98;93.06
29461;BME280;16428;47.836;35.106;2024-02-21T05:48:08;102393.31;;;1.01;92.81
29461;BME280;16428;47.836;35.106;2024-02-21T05:50:35;102399.75;;;0.96;93.35
29461;BME280;16428;47.836;35.106;2024-02-21T05:53:03;102399.06;;;0.74;95.51
29461;BME280;16428;47.836;35.106;2024-02-21T05:55:30;102393.91;;;0.89;94.57
29461;BME280;16428;47.836;35.106;2024-02-21T05:57:57;102393.66;;;0.94;95.26
29461;BME280;16428;47.836;35.106;2024-02-21T06:00:24;102394.16;;;1.02;94.73
29461;BME280;16428;47.836;35.106;2024-02-21T06:02:51;102396.31;;;0.94;95.70
29461;BME280;16428;47.836;35.106;2024-02-21T06:05:19;102399.75;;;0.96;95.24
29461;BME280;16428;47.836;35.106;2024-02-21T06:07:46;102401.31;;;1.00;95.70
29461;BME280;16428;47.836;35.106;2024-02-21T06:10:13;102402.03;;;0.85;95.70
29461;BME280;16428;47.836;35.106;2024-02-21T06:12:40;102392.44;;;1.01;95.32
29461;BME280;16428;47.836;35.106;2024-02-21T06:15:07;102389.75;;;0.84;94.70
29461;BME280;16428;47.836;35.106;2024-02-21T06:17:35;102396.47;;;0.91;95.37
29461;BME280;16428;47.836;35.106;2024-02-21T06:20:02;102397.03;;;0.79;95.72
29461;BME280;16428;47.836;35.106;2024-02-21T06:22:30;102396.75;;;0.85;96.11
29461;BME280;16428;47.836;35.106;2024-02-21T06:24:58;102391.59;;;1.00;95.93
29461;BME280;16428;47.836;35.106;2024-02-21T06:27:26;102392.19;;;0.88;96.38
29461;BME280;16428;47.836;35.106;2024-02-21T06:29:53;102392.25;;;0.87;97.56
29461;BME280;16428;47.836;35.106;2024-02-21T06:32:20;102396.78;;;1.21;94.67
29461;BME280;16428;47.836;35.106;2024-02-21T06:34:47;102398.88;;;0.95;95.46
29461;BME280;16428;47.836;35.106;2024-02-21T06:37:14;102386.22;;;1.02;94.53
29461;BME280;16428;47.836;35.106;2024-02-21T06:39:41;102396.78;;;1.21;93.65
29461;BME280;16428;47.836;35.106;2024-02-21T06:42:08;102404.94;;;1.33;92.29
29461;BME280;16428;47.836;35.106;2024-02-21T06:44:35;102397.44;;;1.24;93.49
29461;BME280;16428;47.836;35.106;2024-02-21T06:47:07;102395.56;;;1.09;95.10
29461;BME280;16428;47.836;35.106;2024-02-21T06:49:35;102392.09;;;1.26;93.23
29461;BME280;16428;47.836;35.106;2024-02-21T06:52:04;102394.81;;;1.24;93.61
29461;BME280;16428;47.836;35.106;2024-02-21T06:54:32;102393.50;;;1.33;93.57
29461;BME280;16428;47.836;35.106;2024-02-21T06:56:59;102392.56;;;1.34;94.54
29461;BME280;16428;47.836;35.106;2024-02-21T06:59:27;102381.28;;;1.48;94.03
29461;BME280;16428;47.836;35.106;2024-02-21T07:01:54;102384.38;;;1.21;95.92
29461;BME280;16428;47.836;35.106;2024-02-21T07:04:22;102383.91;;;1.30;96.00
29461;BME280;16428;47.836;35.106;2024-02-21T07:06:50;102376.97;;;1.28;97.31
29461;BME280;16428;47.836;35.106;2024-02-21T07:09:18;102381.13;;;1.51;94.76
29461;BME280;16428;47.836;35.106;2024-02-21T07:11:45;102379.38;;;1.15;96.81
29461;BME280;16428;47.836;35.106;2024-02-21T07:14:14;102383.63;;;1.36;96.45
29461;BME280;16428;47.836;35.106;2024-02-21T07:16:42;102389.22;;;1.65;94.02
29461;BME280;16428;47.836;35.106;2024-02-21T07:19:09;102387.97;;;1.55;95.73
29461;BME280;16428;47.836;35.106;2024-02-21T07:21:36;102392.34;;;1.56;95.15
29461;BME280;16428;47.836;35.106;2024-02-21T07:24:08;102388.66;;;1.75;94.19
29461;BME280;16428;47.836;35.106;2024-02-21T07:26:35;102382.22;;;1.81;94.26
29461;BME280;16428;47.836;35.106;2024-02-21T07:29:02;102370.47;;;1.85;92.70
29461;BME280;16428;47.836;35.106;2024-02-21T07:31:30;102375.41;;;1.93;93.22
29461;BME280;16428;47.836;35.106;2024-02-21T07:33:57;102374.06;;;1.84;95.05
29461;BME280;16428;47.836;35.106;2024-02-21T07:36:30;102379.72;;;1.78;93.54
29461;BME280;16428;47.836;35.106;2024-02-21T07:38:57;102371.09;;;1.90;92.75
29461;BME280;16428;47.836;35.106;2024-02-21T07:41:27;102380.41;;;2.15;93.00
29461;BME280;16428;47.836;35.106;2024-02-21T07:43:57;102384.13;;;2.28;92.08
29461;BME280;16428;47.836;35.106;2024-02-21T07:46:24;102371.59;;;2.14;92.08
29461;BME280;16428;47.836;35.106;2024-02-21T07:48:51;102375.66;;;2.37;91.48
29461;BME280;16428;47.836;35.106;2024-02-21T07:51:18;102371.13;;;2.39;90.35
29461;BME280;16428;47.836;35.106;2024-02-21T07:53:46;102380.75;;;2.57;90.25
29461;BME280;16428;47.836;35.106;2024-02-21T07:56:15;102377.31;;;2.55;90.66
29461;BME280;16428;47.836;35.106;2024-02-21T07:58:42;102367.72;;;2.68;90.26
29461;BME280;16428;47.836;35.106;2024-02-21T08:01:10;102369.06;;;2.75;89.61
29461;BME280;16428;47.836;35.106;2024-02-21T08:03:37;102366.53;;;2.58;91.71
29461;BME280;16428;47.836;35.106;2024-02-21T08:06:04;102363.97;;;2.57;91.62
29461;BME280;16428;47.836;35.106;2024-02-21T08:08:31;102364.53;;;2.93;89.03
29461;BME280;16428;47.836;35.106;2024-02-21T08:10:58;102360.38;;;2.89;89.96
29461;BME280;16428;47.836;35.106;2024-02-21T08:13:25;102362.72;;;2.31;94.65
29461;BME280;16428;47.836;35.106;2024-02-21T08:15:54;102362.41;;;2.84;93.91
29461;BME280;16428;47.836;35.106;2024-02-21T08:18:21;102359.81;;;2.98;90.07
29461;BME280;16428;47.836;35.106;2024-02-21T08:20:49;102354.16;;;3.20;90.45
29461;BME280;16428;47.836;35.106;2024-02-21T08:23:16;102355.50;;;3.11;91.63
29461;BME280;16428;47.836;35.106;2024-02-21T08:25:43;102352.22;;;3.22;90.51
29461;BME280;16428;47.836;35.106;2024-02-21T08:28:11;102347.72;;;3.38;88.29
29461;BME280;16428;47.836;35.106;2024-02-21T08:30:38;102352.38;;;3.05;89.50
29461;BME280;16428;47.836;35.106;2024-02-21T08:33:05;102351.25;;;2.93;91.37
29461;BME280;16428;47.836;35.106;2024-02-21T08:35:33;102350.16;;;3.27;89.97
29461;BME280;16428;47.836;35.106;2024-02-21T08:38:01;102349.69;;;3.50;87.56
29461;BME280;16428;47.836;35.106;2024-02-21T08:40:28;102350.25;;;3.56;87.87
29461;BME280;16428;47.836;35.106;2024-02-21T08:42:55;102355.03;;;3.93;85.24
29461;BME280;16428;47.836;35.106;2024-02-21T08:45:22;102357.63;;;3.95;83.56
29461;BME280;16428;47.836;35.106;2024-02-21T08:47:49;102354.66;;;3.99;83.21
29461;BME280;16428;47.836;35.106;2024-02-21T08:50:16;102352.16;;;3.82;83.18
29461;BME280;16428;47.836;35.106;2024-02-21T08:52:54;102353.25;;;3.94;82.88
29461;BME280;16428;47.836;35.106;2024-02-21T08:55:22;102354.78;;;4.12;81.93
29461;BME280;16428;47.836;35.106;2024-02-21T08:57:49;102347.41;;;4.30;81.54
29461;BME280;16428;47.836;35.106;2024-02-21T09:00:17;102340.97;;;4.34;82.08
29461;BME280;16428;47.836;35.106;2024-02-21T09:02:44;102350.31;;;4.27;81.30
29461;BME280;16428;47.836;35.106;2024-02-21T09:05:11;102345.22;;;4.50;79.85
29461;BME280;16428;47.836;35.106;2024-02-21T09:07:39;102346.94;;;4.51;79.65
29461;BME280;16428;47.836;35.106;2024-02-21T09:10:06;102332.72;;;4.65;79.44
29461;BME280;16428;47.836;35.106;2024-02-21T09:12:34;102328.13;;;4.81;78.20
29461;BME280;16428;47.836;35.106;2024-02-21T09:15:01;102334.41;;;4.80;76.66
29461;BME280;16428;47.836;35.106;2024-02-21T09:17:28;102330.06;;;4.65;78.65
29461;BME280;16428;47.836;35.106;2024-02-21T09:19:56;102323.69;;;4.68;78.99
29461;BME280;16428;47.836;35.106;2024-02-21T09:22:27;102328.13;;;4.81;78.65
29461;BME280;16428;47.836;35.106;2024-02-21T09:24:54;102319.81;;;4.59;78.12
29461;BME280;16428;47.836;35.106;2024-02-21T09:27:21;102326.00;;;4.86;77.74
29461;BME280;16428;47.836;35.106;2024-02-21T09:29:49;102319.31;;;4.67;75.73
29461;BME280;16428;47.836;35.106;2024-02-21T09:32:18;102326.88;;;4.46;74.68
29461;BME280;16428;47.836;35.106;2024-02-21T09:34:45;102321.50;;;4.05;78.13
29461;BME280;16428;47.836;35.106;2024-02-21T09:37:13;102319.50;;;4.37;78.93
29461;BME280;16428;47.836;35.106;2024-02-21T09:39:40;102313.25;;;4.09;80.69
29461;BME280;16428;47.836;35.106;2024-02-21T09:42:11;102305.03;;;4.41;79.18
29461;BME280;16428;47.836;35.106;2024-02-21T09:44:38;102300.38;;;4.30;79.80
29461;BME280;16428;47.836;35.106;2024-02-21T09:47:10;102297.69;;;4.44;79.35
29461;BME280;16428;47.836;35.106;2024-02-21T09:49:42;102292.88;;;4.37;78.91
29461;BME280;16428;47.836;35.106;2024-02-21T09:52:12;102298.03;;;4.26;79.28
29461;BME280;16428;47.836;35.106;2024-02-21T09:54:41;102292.50;;;4.29;80.48
29461;BME280;16428;47.836;35.106;2024-02-21T09:57:11;102287.59;;;4.22;81.17
29461;BME280;16428;47.836;35.106;2024-02-21T09:59:39;102289.91;;;4.55;79.97
29461;BME280;16428;47.836;35.106;2024-02-21T10:02:08;102286.53;;;4.66;79.53
29461;BME280;16428;47.836;35.106;2024-02-21T10:04:36;102275.59;;;4.71;79.97
29461;BME280;16428;47.836;35.106;2024-02-21T10:07:03;102281.00;;;4.69;77.12
29461;BME280;16428;47.836;35.106;2024-02-21T10:09:31;102273.97;;;4.68;75.67
29461;BME280;16428;47.836;35.106;2024-02-21T10:12:10;102272.88;;;4.58;76.50
29461;BME280;16428;47.836;35.106;2024-02-21T10:14:38;102264.59;;;4.75;76.16
29461;BME280;16428;47.836;35.106;2024-02-21T10:17:06;102265.94;;;4.82;74.58
29461;BME280;16428;47.836;35.106;2024-02-21T10:19:38;102264.13;;;4.83;74.81
29461;BME280;16428;47.836;35.106;2024-02-21T10:22:08;102264.69;;;5.01;74.44
29461;BME280;16428;47.836;35.106;2024-02-21T10:24:37;102260.44;;;5.11;73.61
29461;BME280;16428;47.836;35.106;2024-02-21T10:27:10;102259.38;;;5.01;75.31
29461;BME280;16428;47.836;35.106;2024-02-21T10:29:40;102262.59;;;5.18;74.95
29461;BME280;16428;47.836;35.106;2024-02-21T10:32:11;102254.91;;;5.14;75.73
29461;BME280;16428;47.836;35.106;2024-02-21T10:34:41;102251.09;;;5.30;75.02
29461;BME280;16428;47.836;35.106;2024-02-21T10:37:10;102248.63;;;5.15;75.19
29461;BME280;16428;47.836;35.106;2024-02-21T10:39:41;102247.47;;;5.19;76.68
29461;BME280;16428;47.836;35.106;2024-02-21T10:42:11;102247.47;;;5.19;75.53
29461;BME280;16428;47.836;35.106;2024-02-21T10:44:40;102245.72;;;4.92;75.07
29461;BME280;16428;47.836;35.106;2024-02-21T10:47:09;102245.19;;;5.00;75.49
29461;BME280;16428;47.836;35.106;2024-02-21T10:49:41;102237.59;;;4.81;75.58
29461;BME280;16428;47.836;35.106;2024-02-21T10:52:32;102238.91;;;4.88;73.39
29461;BME280;16428;47.836;35.106;2024-02-21T10:55:10;102239.50;;;4.79;74.63
29461;BME280;16428;47.836;35.106;2024-02-21T10:57:39;102226.44;;;4.62;76.96
29461;BME280;16428;47.836;35.106;2024-02-21T11:00:07;102227.78;;;4.82;76.79
29461;BME280;16428;47.836;35.106;2024-02-21T11:02:38;102220.31;;;4.74;77.57
29461;BME280;16428;47.836;35.106;2024-02-21T11:05:07;102218.94;;;4.81;75.27
29461;BME280;16428;47.836;35.106;2024-02-21T11:07:37;102220.75;;;4.81;75.95
29461;BME280;16428;47.836;35.106;2024-02-21T11:10:04;102210.97;;;4.81;75.85
29461;BME280;16428;47.836;35.106;2024-02-21T11:12:34;102203.94;;;4.93;75.80
29461;BME280;16428;47.836;35.106;2024-02-21T11:15:07;102206.97;;;5.14;75.58
29461;BME280;16428;47.836;35.106;2024-02-21T11:17:35;102202.91;;;4.95;74.69
29461;BME280;16428;47.836;35.106;2024-02-21T11:20:16;102209.94;;;4.97;74.89
29461;BME280;16428;47.836;35.106;2024-02-21T11:22:43;102199.00;;;4.74;74.31
29461;BME280;16428;47.836;35.106;2024-02-21T11:25:10;102206.50;;;4.94;73.71
29461;BME280;16428;47.836;35.106;2024-02-21T11:27:46;102196.25;;;4.76;75.42
29461;BME280;16428;47.836;35.106;2024-02-21T11:30:13;102191.28;;;4.84;75.02
29461;BME280;16428;47.836;35.106;2024-02-21T11:32:49;102196.50;;;4.85;75.47
29461;BME280;16428;47.836;35.106;2024-02-21T11:35:19;102191.59;;;4.92;75.82
29461;BME280;16428;47.836;35.106;2024-02-21T11:37:47;102194.59;;;4.87;74.92
29461;BME280;16428;47.836;35.106;2024-02-21T11:40:14;102187.75;;;4.71;76.00
29461;BME280;16428;47.836;35.106;2024-02-21T11:42:41;102197.38;;;4.99;75.66
29461;BME280;16428;47.836;35.106;2024-02-21T11:45:08;102200.25;;;5.21;74.57
29461;BME280;16428;47.836;35.106;2024-02-21T11:47:36;102193.31;;;5.06;74.10
29461;BME280;16428;47.836;35.106;2024-02-21T11:50:11;102202.44;;;4.89;74.44
29461;BME280;16428;47.836;35.106;2024-02-21T11:52:40;102193.94;;;4.97;74.25
29461;BME280;16428;47.836;35.106;2024-02-21T11:55:08;102192.66;;;4.89;75.32
29461;BME280;16428;47.836;35.106;2024-02-21T11:57:37;102192.03;;;4.99;76.32
29461;BME280;16428;47.836;35.106;2024-02-21T12:00:15;102193.09;;;5.09;77.24
29461;BME280;16428;47.836;35.106;2024-02-21T12:02:43;102190.13;;;5.01;77.72
29461;BME280;16428;47.836;35.106;2024-02-21T12:05:12;102190.72;;;4.79;76.04
29461;BME280;16428;47.836;35.106;2024-02-21T12:07:40;102206.78;;;4.77;75.83
29461;BME280;16428;47.836;35.106;2024-02-21T12:10:11;102199.47;;;4.81;75.50
29461;BME280;16428;47.836;35.106;2024-02-21T12:12:38;102201.63;;;4.88;75.08
29461;BME280;16428;47.836;35.106;2024-02-21T12:15:07;102207.66;;;4.78;75.49
29461;BME280;16428;47.836;35.106;2024-02-21T12:17:39;102202.44;;;4.76;74.38
29461;BME280;16428;47.836;35.106;2024-02-21T12:20:07;102199.09;;;4.60;76.07
29461;BME280;16428;47.836;35.106;2024-02-21T12:22:38;102203.69;;;4.58;76.92
29461;BME280;16428;47.836;35.106;2024-02-21T12:25:16;102199.25;;;4.71;76.85
29461;BME280;16428;47.836;35.106;2024-02-21T12:27:46;102194.78;;;4.84;76.40
29461;BME280;16428;47.836;35.106;2024-02-21T12:30:16;102190.22;;;4.86;78.49
29461;BME280;16428;47.836;35.106;2024-02-21T12:32:43;102185.56;;;5.03;75.90
29461;BME280;16428;47.836;35.106;2024-02-21T12:35:10;102191.28;;;4.97;74.25
29461;BME280;16428;47.836;35.106;2024-02-21T12:37:38;102187.56;;;5.37;74.61
29461;BME280;16428;47.836;35.106;2024-02-21T12:40:07;102187.25;;;5.29;76.16
29461;BME280;16428;47.836;35.106;2024-02-21T12:42:35;102190.22;;;5.37;74.29
29461;BME280;16428;47.836;35.106;2024-02-21T12:45:02;102183.19;;;5.36;74.24
29461;BME280;16428;47.836;35.106;2024-02-21T12:47:34;102187.09;;;5.69;73.81
29461;BME280;16428;47.836;35.106;2024-02-21T12:50:02;102192.00;;;5.75;73.01
29461;BME280;16428;47.836;35.106;2024-02-21T12:52:31;102194.59;;;5.51;72.78
29461;BME280;16428;47.836;35.106;2024-02-21T12:54:58;102189.38;;;5.62;73.36